Torm Saone — OYMM2 — position and weather

sailwx.info

Track history (hours):
 
Tides and Currents Weather Stations Pressure Air Temp Water Temp Dewpoint Dewpoint Depression Visibility Wind Speed Wind Dir Waves Ship Positions

Torm Saone

Last reported at 2018-Feb-23 21:59 UTC. Time now 2018-Feb-23 22:22 UTC.
Position N 51°42' E 002°29'.

Length 183 m; draft 7.5 m.

Type: Ship (hazmat cat D). MMSI: 220570000.

Date/timePositionNaut miles runAvg speedWind from/ knotsBaromVisibWave heightAir tempDewpointWater temp
2018-Feb-23 21:59N 51°42' E 002°29'713.8
2018-Feb-23 21:29N 51°36' E 002°22'713.8
2018-Feb-23 21:00N 51°31' E 002°15'714.1
2018-Feb-23 20:30N 51°26' E 002°08'714.7
2018-Feb-23 20:00N 51°19' E 002°07'713.2
2018-Feb-23 19:30N 51°13' E 002°02'714.7
2018-Feb-23 19:00N 51°10' E 001°52'815.4
2018-Feb-23 18:30N 51°05' E 001°42'816.3
2018-Feb-23 18:00N 50°59' E 001°33'816.3
2018-Feb-23 17:30N 50°52' E 001°26'5214.2
2018-Feb-23 13:50N 50°22' E 000°19'515.3
2018-Feb-23 13:29N 50°21' E 000°11'715.3
2018-Feb-23 13:00N 50°19' W 000°00'915.2
2018-Feb-23 12:26N 50°17' W 000°14'715.1
2018-Feb-23 11:58N 50°15' W 000°24'814.8
2018-Feb-23 11:24N 50°13' W 000°37'914.6
2018-Feb-23 10:46N 50°11' W 000°51'614.4
2018-Feb-23 10:21N 50°10' W 001°01'713.8
2018-Feb-23 09:52N 50°10' W 001°11'513.3
2018-Feb-23 09:30N 50°09' W 001°18'612.1
2018-Feb-23 09:01N 50°11' W 001°27'612.3
2018-Feb-23 08:30N 50°15' W 001°35'612.0
2018-Feb-23 08:00N 50°17' W 001°43'812.2
2018-Feb-23 07:20N 50°22' W 001°54'412.2
2018-Feb-23 06:59N 50°24' W 002°00'1412.3
2018-Feb-23 05:48N 50°32' W 002°19'413.3
2018-Feb-23 05:30N 50°35' W 002°23'1 0.2
2018-Feb-22 23:00N 50°36' W 002°24'2 3.1
2018-Feb-22 22:31N 50°35' W 002°23'2 3.2
2018-Feb-22 22:00N 50°34' W 002°21'2 4.8
2018-Feb-22 21:31N 50°32' W 002°19'3 5.4
2018-Feb-22 21:01N 50°30' W 002°17'4 6.9
2018-Feb-22 20:27N 50°26' W 002°18'3 6.3
2018-Feb-22 20:00N 50°23' W 002°19'3610.9
2018-Feb-22 16:41N 49°51' W 002°45'212.8
2018-Feb-22 16:31N 49°50' W 002°48'1213.2
2018-Feb-22 15:36N 49°45' W 003°05'413.7
2018-Feb-22 15:19N 49°43' W 003°10'513.8
2018-Feb-22 14:56N 49°41' W 003°17'9014.8
2018-Feb-22 08:49N 48°56' W 005°18'615.7
2018-Feb-22 08:25N 48°53' W 005°25'714.1
2018-Feb-22 07:54N 48°49' W 005°35'1210.7
2018-Feb-22 06:45N 48°38' W 005°44'1614.0
2018-Feb-22 05:36N 48°23' W 005°51'216.2
2018-Feb-22 05:30N 48°21' W 005°50'816.0
2018-Feb-22 04:59N 48°13' W 005°46'1315.9
2018-Feb-22 04:08N 48°00' W 005°40'216.0
2018-Feb-22 04:00N 47°58' W 005°39'815.5
2018-Feb-22 03:29N 47°51' W 005°35'1615.4
2018-Feb-22 02:25N 47°40' W 005°17'715.1
2018-Feb-22 01:59N 47°35' W 005°10'915.3
2018-Feb-22 01:24N 47°29' W 005°01'1015.2
2018-Feb-22 00:44N 47°22' W 004°50'1715.1
2018-Feb-21 23:36N 47°10' W 004°31'16014.3
2018-Feb-21 12:22N 45°36' W 001°23'616.1
2018-Feb-21 12:00N 45°39' W 001°16'816.1
2018-Feb-21 11:30N 45°37' W 001°05'815.7
2018-Feb-21 11:00N 45°31' W 000°58'816.2
2018-Feb-21 10:30N 45°24' W 000°51'816.1
2018-Feb-21 09:59N 45°17' W 000°45'5 0.1
2018-Feb-19 17:41N 45°21' W 000°48'213.9
2018-Feb-19 17:30N 45°23' W 000°50'713.5
2018-Feb-19 17:00N 45°29' W 000°56'816.5
2018-Feb-19 16:30N 45°35' W 001°03'815.8
2018-Feb-19 16:00N 45°40' W 001°12'714.3
2018-Feb-19 15:30N 45°36' W 001°22'4 7.0
2018-Feb-19 15:00N 45°36' W 001°27'1 1.7
2018-Feb-19 14:14N 45°37' W 001°28'0 0.1
2018-Feb-19 13:50N 45°37' W 001°28'0 0.1
2018-Feb-19 13:20N 45°37' W 001°28'0 0.0
2018-Feb-19 12:56N 45°37' W 001°28'0 0.0
2018-Feb-19 12:29N 45°36' W 001°28'0 0.1
2018-Feb-19 11:56N 45°36' W 001°28'0 0.1
2018-Feb-19 11:23N 45°36' W 001°28'0 0.0
2018-Feb-19 10:59N 45°36' W 001°28'0 0.1
2018-Feb-19 10:26N 45°36' W 001°28'0 0.1
2018-Feb-19 09:56N 45°36' W 001°28'0 0.1
2018-Feb-19 09:26N 45°36' W 001°28'0 0.0
2018-Feb-19 04:11N 45°36' W 001°28'0 0.2
2018-Feb-19 03:56N 45°36' W 001°28'0 0.1
2018-Feb-19 03:26N 45°37' W 001°28'0 0.1
2018-Feb-19 02:59N 45°37' W 001°28'0 0.0
2018-Feb-19 02:26N 45°37' W 001°28'0 0.0
2018-Feb-19 01:53N 45°37' W 001°28'0 0.1
2018-Feb-19 01:20N 45°37' W 001°28'0 0.0
2018-Feb-19 00:53N 45°37' W 001°28'0 0.1
2018-Feb-19 00:29N 45°37' W 001°28'0 0.1
2018-Feb-18 23:44N 45°36' W 001°28'0 0.0
2018-Feb-18 23:14N 45°36' W 001°28'0 0.0
2018-Feb-18 22:59N 45°36' W 001°28'0 0.2
2018-Feb-18 22:29N 45°36' W 001°28'0 0.1
2018-Feb-18 21:59N 45°36' W 001°28'0 0.0
2018-Feb-18 21:29N 45°36' W 001°28'0 0.1
2018-Feb-18 20:59N 45°36' W 001°28'0 0.1
2018-Feb-18 20:29N 45°36' W 001°28'0 0.0
2018-Feb-18 15:56N 45°36' W 001°28'2 5.0
2018-Feb-18 15:31N 45°37' W 001°31'18612.9
2018-Feb-18 01:04N 47°31' W 005°04'112.6
2018-Feb-18 00:59N 47°32' W 005°05'612.3
2018-Feb-18 00:30N 47°36' W 005°12'612.5
2018-Feb-18 00:00N 47°40' W 005°19'712.7
2018-Feb-17 23:28N 47°45' W 005°26'612.8
2018-Feb-17 23:00N 47°49' W 005°33'712.6
2018-Feb-17 22:28N 47°55' W 005°38'713.8
2018-Feb-17 21:58N 48°01' W 005°41'714.0
2018-Feb-17 21:29N 48°08' W 005°44'713.9
2018-Feb-17 20:59N 48°14' W 005°47'4510.3
2018-Feb-17 16:35N 48°59' W 005°35'210.3
2018-Feb-17 16:26N 48°60' W 005°33'510.1
2018-Feb-17 15:58N 49°02' W 005°27'5611.0
2018-Feb-17 10:49N 49°32' W 004°13'2712.5
2018-Feb-17 08:38N 49°45' W 003°36'311.2
2018-Feb-17 08:23N 49°47' W 003°33'510.9
2018-Feb-17 07:57N 49°49' W 003°26'510.7
2018-Feb-17 07:30N 49°51' W 003°20'610.7
2018-Feb-17 06:55N 49°54' W 003°11'510.9
2018-Feb-17 06:29N 49°57' W 003°05'511.1
2018-Feb-17 06:00N 49°59' W 002°58'711.7
2018-Feb-17 05:27N 50°01' W 002°48'612.7
2018-Feb-17 04:59N 50°02' W 002°39'2414.7
2018-Feb-17 03:20N 50°09' W 002°02'516.2
2018-Feb-17 03:00N 50°10' W 001°54'816.4
2018-Feb-17 02:30N 50°12' W 001°42'816.1
2018-Feb-17 02:01N 50°14' W 001°30'815.6
2018-Feb-17 01:30N 50°16' W 001°18'3512.9
2018-Feb-16 22:47N 50°25' W 000°25'311.0
2018-Feb-16 22:31N 50°26' W 000°21'510.8
2018-Feb-16 22:00N 50°28' W 000°12'510.7
2018-Feb-16 21:31N 50°29' W 000°04'610.7
2018-Feb-16 20:58N 50°31' E 000°04'511.3
2018-Feb-16 20:30N 50°32' E 000°12'611.5
2018-Feb-16 20:00N 50°33' E 000°21'612.6
2018-Feb-16 19:30N 50°35' E 000°31'613.0
2018-Feb-16 19:00N 50°38' E 000°40'713.9
2018-Feb-16 18:30N 50°43' E 000°48'714.4
2018-Feb-16 18:00N 50°47' E 000°57'714.4
2018-Feb-16 17:30N 50°52' E 001°05'714.2
2018-Feb-16 17:00N 50°57' E 001°14'713.5
2018-Feb-16 16:31N 51°01' E 001°22'613.0
2018-Feb-16 16:01N 51°05' E 001°30'611.8
2018-Feb-16 15:31N 51°09' E 001°37'611.3
2018-Feb-16 15:01N 51°13' E 001°44'510.6
2018-Feb-16 14:31N 51°17' E 001°49'510.7
2018-Feb-16 14:01N 51°22' E 001°53'510.9
2018-Feb-16 13:31N 51°27' E 001°57'611.6
2018-Feb-16 13:01N 51°31' E 002°03'611.7
2018-Feb-16 12:30N 51°35' E 002°09'612.1
2018-Feb-16 11:59N 51°40' E 002°15'712.6
2018-Feb-16 11:28N 51°45' E 002°23'462 9.0
2018-Feb-14 08:09N 57°52' E 010°30'411.7
2018-Feb-14 07:46N 57°52' E 010°39'312.0
2018-Feb-14 07:30N 57°50' E 010°43'612.2
2018-Feb-14 07:00N 57°46' E 010°51'4 8.3
2018-Feb-14 06:30N 57°43' E 010°56'612.6
2018-Feb-14 06:00N 57°39' E 011°05'713.3
2018-Feb-14 05:31N 57°34' E 011°14'713.1
2018-Feb-14 05:00N 57°30' E 011°22'612.4
2018-Feb-14 04:31N 57°24' E 011°28'713.0
2018-Feb-14 04:01N 57°18' E 011°32'713.6
2018-Feb-14 03:31N 57°12' E 011°36'612.7
2018-Feb-14 03:00N 57°06' E 011°41'712.6
2018-Feb-14 02:26N 56°59' E 011°45'  
Track history (hours):
 
Tides and Currents Weather Stations Pressure Air Temp Water Temp Dewpoint Dewpoint Depression Visibility Wind Speed Wind Dir Waves Ship Positions

Torm Saone

Last reported at 2018-Feb-23 21:59 UTC. Time now 2018-Feb-23 22:22 UTC.
Position N 51°42' E 002°29'.

Length 183 m; draft 7.5 m.

Type: Ship (hazmat cat D). MMSI: 220570000.

Date/timePositionNaut miles runAvg speedWind from/ knotsBaromVisibWave heightAir tempDewpointWater temp
2018-Feb-23 21:59N 51°42' E 002°29'713.8
2018-Feb-23 21:29N 51°36' E 002°22'713.8
2018-Feb-23 21:00N 51°31' E 002°15'714.1
2018-Feb-23 20:30N 51°26' E 002°08'714.7
2018-Feb-23 20:00N 51°19' E 002°07'713.2
2018-Feb-23 19:30N 51°13' E 002°02'714.7
2018-Feb-23 19:00N 51°10' E 001°52'815.4
2018-Feb-23 18:30N 51°05' E 001°42'816.3
2018-Feb-23 18:00N 50°59' E 001°33'816.3
2018-Feb-23 17:30N 50°52' E 001°26'5214.2
2018-Feb-23 13:50N 50°22' E 000°19'515.3
2018-Feb-23 13:29N 50°21' E 000°11'715.3
2018-Feb-23 13:00N 50°19' W 000°00'915.2
2018-Feb-23 12:26N 50°17' W 000°14'715.1
2018-Feb-23 11:58N 50°15' W 000°24'814.8
2018-Feb-23 11:24N 50°13' W 000°37'914.6
2018-Feb-23 10:46N 50°11' W 000°51'614.4
2018-Feb-23 10:21N 50°10' W 001°01'713.8
2018-Feb-23 09:52N 50°10' W 001°11'513.3
2018-Feb-23 09:30N 50°09' W 001°18'612.1
2018-Feb-23 09:01N 50°11' W 001°27'612.3
2018-Feb-23 08:30N 50°15' W 001°35'612.0
2018-Feb-23 08:00N 50°17' W 001°43'812.2
2018-Feb-23 07:20N 50°22' W 001°54'412.2
2018-Feb-23 06:59N 50°24' W 002°00'1412.3
2018-Feb-23 05:48N 50°32' W 002°19'413.3
2018-Feb-23 05:30N 50°35' W 002°23'1 0.2
2018-Feb-22 23:00N 50°36' W 002°24'2 3.1
2018-Feb-22 22:31N 50°35' W 002°23'2 3.2
2018-Feb-22 22:00N 50°34' W 002°21'2 4.8
2018-Feb-22 21:31N 50°32' W 002°19'3 5.4
2018-Feb-22 21:01N 50°30' W 002°17'4 6.9
2018-Feb-22 20:27N 50°26' W 002°18'3 6.3
2018-Feb-22 20:00N 50°23' W 002°19'3610.9
2018-Feb-22 16:41N 49°51' W 002°45'212.8
2018-Feb-22 16:31N 49°50' W 002°48'1213.2
2018-Feb-22 15:36N 49°45' W 003°05'413.7
2018-Feb-22 15:19N 49°43' W 003°10'513.8
2018-Feb-22 14:56N 49°41' W 003°17'9014.8
2018-Feb-22 08:49N 48°56' W 005°18'615.7
2018-Feb-22 08:25N 48°53' W 005°25'714.1
2018-Feb-22 07:54N 48°49' W 005°35'1210.7
2018-Feb-22 06:45N 48°38' W 005°44'1614.0
2018-Feb-22 05:36N 48°23' W 005°51'216.2
2018-Feb-22 05:30N 48°21' W 005°50'816.0
2018-Feb-22 04:59N 48°13' W 005°46'1315.9
2018-Feb-22 04:08N 48°00' W 005°40'216.0
2018-Feb-22 04:00N 47°58' W 005°39'815.5
2018-Feb-22 03:29N 47°51' W 005°35'1615.4
2018-Feb-22 02:25N 47°40' W 005°17'715.1
2018-Feb-22 01:59N 47°35' W 005°10'915.3
2018-Feb-22 01:24N 47°29' W 005°01'1015.2
2018-Feb-22 00:44N 47°22' W 004°50'1715.1
2018-Feb-21 23:36N 47°10' W 004°31'16014.3
2018-Feb-21 12:22N 45°36' W 001°23'616.1
2018-Feb-21 12:00N 45°39' W 001°16'816.1
2018-Feb-21 11:30N 45°37' W 001°05'815.7
2018-Feb-21 11:00N 45°31' W 000°58'816.2
2018-Feb-21 10:30N 45°24' W 000°51'816.1
2018-Feb-21 09:59N 45°17' W 000°45'5 0.1
2018-Feb-19 17:41N 45°21' W 000°48'213.9
2018-Feb-19 17:30N 45°23' W 000°50'713.5
2018-Feb-19 17:00N 45°29' W 000°56'816.5
2018-Feb-19 16:30N 45°35' W 001°03'815.8
2018-Feb-19 16:00N 45°40' W 001°12'714.3
2018-Feb-19 15:30N 45°36' W 001°22'4 7.0
2018-Feb-19 15:00N 45°36' W 001°27'1 1.7
2018-Feb-19 14:14N 45°37' W 001°28'0 0.1
2018-Feb-19 13:50N 45°37' W 001°28'0 0.1
2018-Feb-19 13:20N 45°37' W 001°28'0 0.0
2018-Feb-19 12:56N 45°37' W 001°28'0 0.0
2018-Feb-19 12:29N 45°36' W 001°28'0 0.1
2018-Feb-19 11:56N 45°36' W 001°28'0 0.1
2018-Feb-19 11:23N 45°36' W 001°28'0 0.0
2018-Feb-19 10:59N 45°36' W 001°28'0 0.1
2018-Feb-19 10:26N 45°36' W 001°28'0 0.1
2018-Feb-19 09:56N 45°36' W 001°28'0 0.1
2018-Feb-19 09:26N 45°36' W 001°28'0 0.0
2018-Feb-19 04:11N 45°36' W 001°28'0 0.2
2018-Feb-19 03:56N 45°36' W 001°28'0 0.1
2018-Feb-19 03:26N 45°37' W 001°28'0 0.1
2018-Feb-19 02:59N 45°37' W 001°28'0 0.0
2018-Feb-19 02:26N 45°37' W 001°28'0 0.0
2018-Feb-19 01:53N 45°37' W 001°28'0 0.1
2018-Feb-19 01:20N 45°37' W 001°28'0 0.0
2018-Feb-19 00:53N 45°37' W 001°28'0 0.1
2018-Feb-19 00:29N 45°37' W 001°28'0 0.1
2018-Feb-18 23:44N 45°36' W 001°28'0 0.0
2018-Feb-18 23:14N 45°36' W 001°28'0 0.0
2018-Feb-18 22:59N 45°36' W 001°28'0 0.2
2018-Feb-18 22:29N 45°36' W 001°28'0 0.1
2018-Feb-18 21:59N 45°36' W 001°28'0 0.0
2018-Feb-18 21:29N 45°36' W 001°28'0 0.1
2018-Feb-18 20:59N 45°36' W 001°28'0 0.1
2018-Feb-18 20:29N 45°36' W 001°28'0 0.0
2018-Feb-18 15:56N 45°36' W 001°28'2 5.0
2018-Feb-18 15:31N 45°37' W 001°31'18612.9
2018-Feb-18 01:04N 47°31' W 005°04'112.6
2018-Feb-18 00:59N 47°32' W 005°05'612.3
2018-Feb-18 00:30N 47°36' W 005°12'612.5
2018-Feb-18 00:00N 47°40' W 005°19'712.7
2018-Feb-17 23:28N 47°45' W 005°26'612.8
2018-Feb-17 23:00N 47°49' W 005°33'712.6
2018-Feb-17 22:28N 47°55' W 005°38'713.8
2018-Feb-17 21:58N 48°01' W 005°41'714.0
2018-Feb-17 21:29N 48°08' W 005°44'713.9
2018-Feb-17 20:59N 48°14' W 005°47'4510.3
2018-Feb-17 16:35N 48°59' W 005°35'210.3
2018-Feb-17 16:26N 48°60' W 005°33'510.1
2018-Feb-17 15:58N 49°02' W 005°27'5611.0
2018-Feb-17 10:49N 49°32' W 004°13'2712.5
2018-Feb-17 08:38N 49°45' W 003°36'311.2
2018-Feb-17 08:23N 49°47' W 003°33'510.9
2018-Feb-17 07:57N 49°49' W 003°26'510.7
2018-Feb-17 07:30N 49°51' W 003°20'610.7
2018-Feb-17 06:55N 49°54' W 003°11'510.9
2018-Feb-17 06:29N 49°57' W 003°05'511.1
2018-Feb-17 06:00N 49°59' W 002°58'711.7
2018-Feb-17 05:27N 50°01' W 002°48'612.7
2018-Feb-17 04:59N 50°02' W 002°39'2414.7
2018-Feb-17 03:20N 50°09' W 002°02'516.2
2018-Feb-17 03:00N 50°10' W 001°54'816.4
2018-Feb-17 02:30N 50°12' W 001°42'816.1
2018-Feb-17 02:01N 50°14' W 001°30'815.6
2018-Feb-17 01:30N 50°16' W 001°18'3512.9
2018-Feb-16 22:47N 50°25' W 000°25'311.0
2018-Feb-16 22:31N 50°26' W 000°21'510.8
2018-Feb-16 22:00N 50°28' W 000°12'510.7
2018-Feb-16 21:31N 50°29' W 000°04'610.7
2018-Feb-16 20:58N 50°31' E 000°04'511.3
2018-Feb-16 20:30N 50°32' E 000°12'611.5
2018-Feb-16 20:00N 50°33' E 000°21'612.6
2018-Feb-16 19:30N 50°35' E 000°31'613.0
2018-Feb-16 19:00N 50°38' E 000°40'713.9
2018-Feb-16 18:30N 50°43' E 000°48'714.4
2018-Feb-16 18:00N 50°47' E 000°57'714.4
2018-Feb-16 17:30N 50°52' E 001°05'714.2
2018-Feb-16 17:00N 50°57' E 001°14'713.5
2018-Feb-16 16:31N 51°01' E 001°22'613.0
2018-Feb-16 16:01N 51°05' E 001°30'611.8
2018-Feb-16 15:31N 51°09' E 001°37'611.3
2018-Feb-16 15:01N 51°13' E 001°44'510.6
2018-Feb-16 14:31N 51°17' E 001°49'510.7
2018-Feb-16 14:01N 51°22' E 001°53'510.9
2018-Feb-16 13:31N 51°27' E 001°57'611.6
2018-Feb-16 13:01N 51°31' E 002°03'611.7
2018-Feb-16 12:30N 51°35' E 002°09'612.1
2018-Feb-16 11:59N 51°40' E 002°15'712.6
2018-Feb-16 11:28N 51°45' E 002°23'462 9.0
2018-Feb-14 08:09N 57°52' E 010°30'411.7
2018-Feb-14 07:46N 57°52' E 010°39'312.0
2018-Feb-14 07:30N 57°50' E 010°43'612.2
2018-Feb-14 07:00N 57°46' E 010°51'4 8.3
2018-Feb-14 06:30N 57°43' E 010°56'612.6
2018-Feb-14 06:00N 57°39' E 011°05'713.3
2018-Feb-14 05:31N 57°34' E 011°14'713.1
2018-Feb-14 05:00N 57°30' E 011°22'612.4
2018-Feb-14 04:31N 57°24' E 011°28'713.0
2018-Feb-14 04:01N 57°18' E 011°32'713.6
2018-Feb-14 03:31N 57°12' E 011°36'612.7
2018-Feb-14 03:00N 57°06' E 011°41'712.6
2018-Feb-14 02:26N 56°59' E 011°45'  

Dump ship's entire track history